sensor_id;sensor_type;location;lat;lon;timestamp;pressure;altitude;pressure_sealevel;temperature;humidity
19736;BME280;32064;49.310;8.646;2023-08-21T00:00:45;100934.47;;;27.13;75.19
19736;BME280;32064;49.310;8.646;2023-08-21T00:03:11;100936.13;;;27.14;75.61
19736;BME280;32064;49.310;8.646;2023-08-21T00:05:36;100935.09;;;27.15;75.45
19736;BME280;32064;49.310;8.646;2023-08-21T00:08:02;100937.19;;;27.13;75.35
19736;BME280;32064;49.310;8.646;2023-08-21T00:10:29;100930.72;;;27.14;75.30
19736;BME280;32064;49.310;8.646;2023-08-21T00:12:55;100935.31;;;27.14;75.01
19736;BME280;32064;49.310;8.646;2023-08-21T00:15:20;100928.44;;;27.11;74.72
19736;BME280;32064;49.310;8.646;2023-08-21T00:17:46;100927.78;;;27.09;74.78
19736;BME280;32064;49.310;8.646;2023-08-21T00:20:11;100925.94;;;27.09;74.98
19736;BME280;32064;49.310;8.646;2023-08-21T00:22:36;100934.88;;;27.10;75.11
19736;BME280;32064;49.310;8.646;2023-08-21T00:25:02;100928.41;;;27.04;74.52
19736;BME280;32064;49.310;8.646;2023-08-21T00:27:28;100925.91;;;27.03;75.73
19736;BME280;32064;49.310;8.646;2023-08-21T00:29:53;100922.38;;;27.02;75.46
19736;BME280;32064;49.310;8.646;2023-08-21T00:32:19;100924.44;;;27.00;76.11
19736;BME280;32064;49.310;8.646;2023-08-21T00:34:44;100919.25;;;26.99;75.32
19736;BME280;32064;49.310;8.646;2023-08-21T00:37:10;100931.94;;;26.98;75.48
19736;BME280;32064;49.310;8.646;2023-08-21T00:39:36;100932.94;;;26.97;75.52
19736;BME280;32064;49.310;8.646;2023-08-21T00:42:01;100933.34;;;26.94;75.76
19736;BME280;32064;49.310;8.646;2023-08-21T00:44:27;100927.78;;;26.96;75.40
19736;BME280;32064;49.310;8.646;2023-08-21T00:46:52;100930.66;;;26.94;75.26
19736;BME280;32064;49.310;8.646;2023-08-21T00:49:18;100925.03;;;26.89;75.79
19736;BME280;32064;49.310;8.646;2023-08-21T00:51:44;100923.78;;;26.92;75.57
19736;BME280;32064;49.310;8.646;2023-08-21T00:54:10;100928.19;;;26.93;75.59
19736;BME280;32064;49.310;8.646;2023-08-21T00:56:35;100920.25;;;26.91;75.72
19736;BME280;32064;49.310;8.646;2023-08-21T00:59:01;100917.56;;;26.91;75.96
19736;BME280;32064;49.310;8.646;2023-08-21T01:01:28;100916.09;;;26.88;75.19
19736;BME280;32064;49.310;8.646;2023-08-21T01:03:53;100916.31;;;26.87;75.26
19736;BME280;32064;49.310;8.646;2023-08-21T01:06:19;100921.72;;;26.87;75.87
19736;BME280;32064;49.310;8.646;2023-08-21T01:08:50;100931.25;;;26.83;75.55
19736;BME280;32064;49.310;8.646;2023-08-21T01:16:39;100928.09;;;26.73;75.68
19736;BME280;32064;49.310;8.646;2023-08-21T01:19:10;100934.91;;;26.69;76.19
19736;BME280;32064;49.310;8.646;2023-08-21T01:21:40;100940.06;;;26.63;76.46
19736;BME280;32064;49.310;8.646;2023-08-21T01:24:05;100942.34;;;26.60;77.01
19736;BME280;32064;49.310;8.646;2023-08-21T01:26:31;100945.22;;;26.52;77.28
19736;BME280;32064;49.310;8.646;2023-08-21T01:28:56;100944.56;;;26.50;76.93
19736;BME280;32064;49.310;8.646;2023-08-21T01:31:26;100940.56;;;26.46;78.06
19736;BME280;32064;49.310;8.646;2023-08-21T01:33:55;100944.91;;;26.40;77.45
19736;BME280;32064;49.310;8.646;2023-08-21T01:36:23;100939.72;;;26.38;77.44
19736;BME280;32064;49.310;8.646;2023-08-21T01:38:50;100942.59;;;26.37;77.98
19736;BME280;32064;49.310;8.646;2023-08-21T01:41:15;100946.34;;;26.36;77.73
19736;BME280;32064;49.310;8.646;2023-08-21T01:43:41;100937.78;;;26.32;78.30
19736;BME280;32064;49.310;8.646;2023-08-21T01:46:06;100941.53;;;26.31;77.91
19736;BME280;32064;49.310;8.646;2023-08-21T01:48:32;100940.06;;;26.29;78.21
19736;BME280;32064;49.310;8.646;2023-08-21T01:50:57;100941.91;;;26.22;78.38
19736;BME280;32064;49.310;8.646;2023-08-21T01:53:23;100940.22;;;26.20;78.25
19736;BME280;32064;49.310;8.646;2023-08-21T01:55:48;100938.72;;;26.18;77.84
19736;BME280;32064;49.310;8.646;2023-08-21T01:58:13;100939.97;;;26.15;78.35
19736;BME280;32064;49.310;8.646;2023-08-21T02:00:39;100947.44;;;26.13;78.11
19736;BME280;32064;49.310;8.646;2023-08-21T02:03:04;100940.13;;;26.07;78.11
19736;BME280;32064;49.310;8.646;2023-08-21T02:05:30;100948.41;;;26.06;78.23
19736;BME280;32064;49.310;8.646;2023-08-21T02:07:55;100945.06;;;26.04;77.93
19736;BME280;32064;49.310;8.646;2023-08-21T02:10:20;100949.84;;;26.02;77.42
19736;BME280;32064;49.310;8.646;2023-08-21T02:12:46;100950.03;;;26.00;78.17
19736;BME280;32064;49.310;8.646;2023-08-21T02:15:11;100944.63;;;26.00;78.84
19736;BME280;32064;49.310;8.646;2023-08-21T02:17:36;100953.75;;;25.99;78.18
19736;BME280;32064;49.310;8.646;2023-08-21T02:20:02;100953.13;;;25.97;78.24
19736;BME280;32064;49.310;8.646;2023-08-21T02:22:27;100957.03;;;25.94;78.89
19736;BME280;32064;49.310;8.646;2023-08-21T02:24:53;100949.13;;;25.93;78.51
19736;BME280;32064;49.310;8.646;2023-08-21T02:27:19;100956.59;;;25.91;78.91
19736;BME280;32064;49.310;8.646;2023-08-21T02:29:44;100955.28;;;25.87;78.93
19736;BME280;32064;49.310;8.646;2023-08-21T02:32:09;100952.81;;;25.85;79.18
19736;BME280;32064;49.310;8.646;2023-08-21T02:34:35;100957.69;;;25.82;79.23
19736;BME280;32064;49.310;8.646;2023-08-21T02:37:01;100947.97;;;25.81;79.44
19736;BME280;32064;49.310;8.646;2023-08-21T02:39:27;100957.91;;;25.80;79.73
19736;BME280;32064;49.310;8.646;2023-08-21T02:41:53;100955.22;;;25.80;79.68
19736;BME280;32064;49.310;8.646;2023-08-21T02:44:18;100958.09;;;25.79;79.66
19736;BME280;32064;49.310;8.646;2023-08-21T02:46:43;100963.25;;;25.73;80.17
19736;BME280;32064;49.310;8.646;2023-08-21T02:49:09;100966.13;;;25.72;79.52
19736;BME280;32064;49.310;8.646;2023-08-21T02:51:34;100962.41;;;25.73;79.86
19736;BME280;32064;49.310;8.646;2023-08-21T02:53:59;100959.09;;;25.71;79.76
19736;BME280;32064;49.310;8.646;2023-08-21T02:56:25;100958.44;;;25.69;80.05
19736;BME280;32064;49.310;8.646;2023-08-21T02:58:50;100958.63;;;25.67;79.65
19736;BME280;32064;49.310;8.646;2023-08-21T03:01:15;100959.00;;;25.64;80.11
19736;BME280;32064;49.310;8.646;2023-08-21T03:03:42;100963.78;;;25.62;80.39
19736;BME280;32064;49.310;8.646;2023-08-21T03:06:07;100952.34;;;25.60;80.11
19736;BME280;32064;49.310;8.646;2023-08-21T03:08:32;100957.91;;;25.59;80.57
19736;BME280;32064;49.310;8.646;2023-08-21T03:10:58;100962.69;;;25.57;80.07
19736;BME280;32064;49.310;8.646;2023-08-21T03:13:23;100959.97;;;25.57;80.09
19736;BME280;32064;49.310;8.646;2023-08-21T03:15:49;100950.22;;;25.56;80.28
19736;BME280;32064;49.310;8.646;2023-08-21T03:18:14;100945.84;;;25.54;79.84
19736;BME280;32064;49.310;8.646;2023-08-21T03:20:47;100948.13;;;25.51;80.07
19736;BME280;32064;49.310;8.646;2023-08-21T03:23:13;100953.50;;;25.51;79.88
19736;BME280;32064;49.310;8.646;2023-08-21T03:25:38;100952.03;;;25.48;80.49
19736;BME280;32064;49.310;8.646;2023-08-21T03:28:04;100955.09;;;25.45;80.23
19736;BME280;32064;49.310;8.646;2023-08-21T03:30:29;100950.94;;;25.43;80.74
19736;BME280;32064;49.310;8.646;2023-08-21T03:32:54;100950.28;;;25.41;80.25
19736;BME280;32064;49.310;8.646;2023-08-21T03:35:20;100949.63;;;25.39;80.32
19736;BME280;32064;49.310;8.646;2023-08-21T03:37:45;100948.16;;;25.36;80.89
19736;BME280;32064;49.310;8.646;2023-08-21T03:40:11;100947.69;;;25.33;80.48
19736;BME280;32064;49.310;8.646;2023-08-21T03:42:36;100948.75;;;25.31;81.02
19736;BME280;32064;49.310;8.646;2023-08-21T03:45:02;100949.13;;;25.28;80.77
19736;BME280;32064;49.310;8.646;2023-08-21T03:47:30;100951.00;;;25.28;80.98
19736;BME280;32064;49.310;8.646;2023-08-21T03:49:55;100955.50;;;25.27;80.84
19736;BME280;32064;49.310;8.646;2023-08-21T03:52:20;100949.50;;;25.25;80.98
19736;BME280;32064;49.310;8.646;2023-08-21T03:54:46;100958.59;;;25.24;80.92
19736;BME280;32064;49.310;8.646;2023-08-21T03:57:11;100956.09;;;25.23;81.49
19736;BME280;32064;49.310;8.646;2023-08-21T03:59:36;100960.84;;;25.21;81.58
19736;BME280;32064;49.310;8.646;2023-08-21T04:02:02;100963.72;;;25.19;80.96
19736;BME280;32064;49.310;8.646;2023-08-21T04:04:27;100963.91;;;25.18;81.31
19736;BME280;32064;49.310;8.646;2023-08-21T04:06:52;100966.16;;;25.14;80.87
19736;BME280;32064;49.310;8.646;2023-08-21T04:09:18;100967.34;;;25.12;80.83
19736;BME280;32064;49.310;8.646;2023-08-21T04:11:43;100968.53;;;25.09;81.37
19736;BME280;32064;49.310;8.646;2023-08-21T04:14:09;100972.81;;;25.03;81.49
19736;BME280;32064;49.310;8.646;2023-08-21T04:16:34;100968.00;;;24.99;81.67
19736;BME280;32064;49.310;8.646;2023-08-21T04:18:59;100975.63;;;24.95;82.25
19736;BME280;32064;49.310;8.646;2023-08-21T04:21:25;100962.16;;;24.95;81.68
19736;BME280;32064;49.310;8.646;2023-08-21T04:23:50;100964.84;;;24.95;81.70
19736;BME280;32064;49.310;8.646;2023-08-21T04:26:16;100964.03;;;24.95;81.99
19736;BME280;32064;49.310;8.646;2023-08-21T04:28:41;100974.97;;;24.93;81.97
19736;BME280;32064;49.310;8.646;2023-08-21T04:31:07;100980.34;;;24.93;81.85
19736;BME280;32064;49.310;8.646;2023-08-21T04:33:33;100978.88;;;24.91;81.64
19736;BME280;32064;49.310;8.646;2023-08-21T04:35:59;100979.72;;;24.91;82.21
19736;BME280;32064;49.310;8.646;2023-08-21T04:38:25;100981.56;;;24.91;81.83
19736;BME280;32064;49.310;8.646;2023-08-21T04:40:50;100978.03;;;24.90;81.60
19736;BME280;32064;49.310;8.646;2023-08-21T04:43:16;100979.91;;;24.90;82.20
19736;BME280;32064;49.310;8.646;2023-08-21T04:45:51;100977.38;;;24.88;82.25
19736;BME280;32064;49.310;8.646;2023-08-21T04:48:19;100984.47;;;24.89;82.29
19736;BME280;32064;49.310;8.646;2023-08-21T04:50:45;100983.13;;;24.85;81.95
19736;BME280;32064;49.310;8.646;2023-08-21T04:53:11;100989.00;;;24.89;82.64
19736;BME280;32064;49.310;8.646;2023-08-21T04:55:36;100987.97;;;24.90;82.57
19736;BME280;32064;49.310;8.646;2023-08-21T04:58:02;100987.97;;;24.90;82.06
19736;BME280;32064;49.310;8.646;2023-08-21T05:00:27;100987.97;;;24.90;82.69
19736;BME280;32064;49.310;8.646;2023-08-21T05:02:53;100994.28;;;24.97;82.43
19736;BME280;32064;49.310;8.646;2023-08-21T05:05:18;101005.53;;;25.00;82.28
19736;BME280;32064;49.310;8.646;2023-08-21T05:07:44;100999.94;;;25.02;82.16
19736;BME280;32064;49.310;8.646;2023-08-21T05:10:09;100997.72;;;25.05;82.49
19736;BME280;32064;49.310;8.646;2023-08-21T05:12:35;101004.22;;;25.11;82.82
19736;BME280;32064;49.310;8.646;2023-08-21T05:15:00;101010.09;;;25.15;81.82
19736;BME280;32064;49.310;8.646;2023-08-21T05:17:26;101008.66;;;25.19;82.95
19736;BME280;32064;49.310;8.646;2023-08-21T05:19:55;101001.69;;;25.24;82.62
19736;BME280;32064;49.310;8.646;2023-08-21T05:22:20;101009.22;;;25.29;82.41
19736;BME280;32064;49.310;8.646;2023-08-21T05:24:45;101009.50;;;25.34;82.29
19736;BME280;32064;49.310;8.646;2023-08-21T05:27:11;101009.13;;;25.37;82.25
19736;BME280;32064;49.310;8.646;2023-08-21T05:29:36;101018.69;;;25.40;82.14
19736;BME280;32064;49.310;8.646;2023-08-21T05:32:01;101013.53;;;25.45;82.14
19736;BME280;32064;49.310;8.646;2023-08-21T05:34:27;101017.72;;;25.47;82.00
19736;BME280;32064;49.310;8.646;2023-08-21T05:36:53;101013.19;;;25.48;82.30
19736;BME280;32064;49.310;8.646;2023-08-21T05:39:21;101016.13;;;25.53;82.45
19736;BME280;32064;49.310;8.646;2023-08-21T05:41:47;101025.69;;;25.56;81.95
19736;BME280;32064;49.310;8.646;2023-08-21T05:44:12;101023.47;;;25.59;81.52
19736;BME280;32064;49.310;8.646;2023-08-21T05:46:37;101019.34;;;25.63;81.96
19736;BME280;32064;49.310;8.646;2023-08-21T05:49:03;101025.38;;;25.65;81.65
19736;BME280;32064;49.310;8.646;2023-08-21T05:51:29;101027.88;;;25.67;81.07
19736;BME280;32064;49.310;8.646;2023-08-21T05:53:54;101026.88;;;25.68;81.30
19736;BME280;32064;49.310;8.646;2023-08-21T05:56:19;101028.97;;;25.72;80.96
19736;BME280;32064;49.310;8.646;2023-08-21T05:58:45;101030.06;;;25.78;80.54
19736;BME280;32064;49.310;8.646;2023-08-21T06:01:11;101032.03;;;25.84;80.70
19736;BME280;32064;49.310;8.646;2023-08-21T06:03:36;101029.78;;;25.88;80.64
19736;BME280;32064;49.310;8.646;2023-08-21T06:06:02;101032.94;;;25.91;80.82
19736;BME280;32064;49.310;8.646;2023-08-21T06:08:27;101038.38;;;25.98;80.48
19736;BME280;32064;49.310;8.646;2023-08-21T06:10:53;101043.00;;;26.04;80.47
19736;BME280;32064;49.310;8.646;2023-08-21T06:13:18;101047.16;;;26.07;79.49
19736;BME280;32064;49.310;8.646;2023-08-21T06:15:44;101046.72;;;26.03;80.17
19736;BME280;32064;49.310;8.646;2023-08-21T06:18:10;101049.69;;;26.08;79.65
19736;BME280;32064;49.310;8.646;2023-08-21T06:20:36;101037.47;;;26.12;79.72
19736;BME280;32064;49.310;8.646;2023-08-21T06:23:01;101042.28;;;26.17;80.32
19736;BME280;32064;49.310;8.646;2023-08-21T06:25:27;101046.94;;;26.30;80.57
19736;BME280;32064;49.310;8.646;2023-08-21T06:27:52;101050.81;;;26.42;80.01
19736;BME280;32064;49.310;8.646;2023-08-21T06:30:17;101046.78;;;26.53;79.70
19736;BME280;32064;49.310;8.646;2023-08-21T06:32:44;101054.13;;;26.65;79.64
19736;BME280;32064;49.310;8.646;2023-08-21T06:35:09;101051.91;;;26.76;79.12
19736;BME280;32064;49.310;8.646;2023-08-21T06:37:35;101052.78;;;26.83;78.10
19736;BME280;32064;49.310;8.646;2023-08-21T06:40:00;101053.22;;;26.86;77.91
19736;BME280;32064;49.310;8.646;2023-08-21T06:42:26;101049.75;;;26.99;78.12
19736;BME280;32064;49.310;8.646;2023-08-21T06:44:51;101059.81;;;27.12;77.58
19736;BME280;32064;49.310;8.646;2023-08-21T06:47:16;101056.56;;;27.23;77.35
19736;BME280;32064;49.310;8.646;2023-08-21T06:49:42;101051.19;;;27.37;76.08
19736;BME280;32064;49.310;8.646;2023-08-21T06:52:07;101058.31;;;27.51;76.59
19736;BME280;32064;49.310;8.646;2023-08-21T06:54:33;101068.59;;;27.69;75.51
19736;BME280;32064;49.310;8.646;2023-08-21T06:56:59;101059.50;;;27.83;74.69
19736;BME280;32064;49.310;8.646;2023-08-21T06:59:24;101065.13;;;28.02;75.16
19736;BME280;32064;49.310;8.646;2023-08-21T07:01:49;101059.31;;;28.18;74.01
19736;BME280;32064;49.310;8.646;2023-08-21T07:04:16;101067.25;;;28.39;74.19
19736;BME280;32064;49.310;8.646;2023-08-21T07:06:42;101059.97;;;28.60;73.46
19736;BME280;32064;49.310;8.646;2023-08-21T07:09:07;101052.03;;;28.72;72.57
19736;BME280;32064;49.310;8.646;2023-08-21T07:11:33;101056.78;;;28.83;71.73
19736;BME280;32064;49.310;8.646;2023-08-21T07:13:58;101054.25;;;29.08;70.42
19736;BME280;32064;49.310;8.646;2023-08-21T07:16:24;101061.88;;;29.31;70.58
19736;BME280;32064;49.310;8.646;2023-08-21T07:18:51;101059.66;;;29.60;70.27
19736;BME280;32064;49.310;8.646;2023-08-21T07:21:17;101062.47;;;29.85;68.76
19736;BME280;32064;49.310;8.646;2023-08-21T07:23:43;101058.97;;;30.09;68.33
19736;BME280;32064;49.310;8.646;2023-08-21T07:26:08;101062.25;;;30.43;67.06
19736;BME280;32064;49.310;8.646;2023-08-21T07:28:34;101057.88;;;30.85;66.80
19736;BME280;32064;49.310;8.646;2023-08-21T07:30:59;101064.34;;;31.58;65.10
19736;BME280;32064;49.310;8.646;2023-08-21T07:33:26;101074.63;;;34.25;56.87
19736;BME280;32064;49.310;8.646;2023-08-21T07:36:04;101075.13;;;36.95;50.03
19736;BME280;32064;49.310;8.646;2023-08-21T07:38:30;101073.25;;;38.04;45.58
19736;BME280;32064;49.310;8.646;2023-08-21T07:41:07;101075.09;;;38.80;44.05
19736;BME280;32064;49.310;8.646;2023-08-21T07:43:35;101078.13;;;39.49;42.81
19736;BME280;32064;49.310;8.646;2023-08-21T07:46:08;101070.69;;;39.94;41.80
19736;BME280;32064;49.310;8.646;2023-08-21T07:48:36;101077.53;;;40.60;40.33
19736;BME280;32064;49.310;8.646;2023-08-21T07:51:01;101070.69;;;40.81;39.25
19736;BME280;32064;49.310;8.646;2023-08-21T07:53:27;101073.19;;;41.02;39.26
19736;BME280;32064;49.310;8.646;2023-08-21T07:55:53;101071.78;;;41.66;38.13
19736;BME280;32064;49.310;8.646;2023-08-21T07:58:19;101079.09;;;41.95;37.53
19736;BME280;32064;49.310;8.646;2023-08-21T08:00:45;101073.69;;;42.04;37.57
19736;BME280;32064;49.310;8.646;2023-08-21T08:03:10;101079.34;;;42.45;36.29
19736;BME280;32064;49.310;8.646;2023-08-21T08:05:37;101073.06;;;42.39;36.31
19736;BME280;32064;49.310;8.646;2023-08-21T08:08:03;101077.19;;;42.56;35.80
19736;BME280;32064;49.310;8.646;2023-08-21T08:10:28;101079.28;;;42.78;35.31
19736;BME280;32064;49.310;8.646;2023-08-21T08:12:54;101077.09;;;43.02;34.54
19736;BME280;32064;49.310;8.646;2023-08-21T08:15:20;101074.75;;;43.23;34.58
19736;BME280;32064;49.310;8.646;2023-08-21T08:17:45;101067.28;;;43.46;34.45
19736;BME280;32064;49.310;8.646;2023-08-21T08:20:12;101072.81;;;43.83;33.61
19736;BME280;32064;49.310;8.646;2023-08-21T08:22:38;101074.00;;;43.90;33.09
19736;BME280;32064;49.310;8.646;2023-08-21T08:25:04;101080.28;;;43.82;33.58
19736;BME280;32064;49.310;8.646;2023-08-21T08:27:31;101082.19;;;43.73;33.16
19736;BME280;32064;49.310;8.646;2023-08-21T08:29:57;101075.72;;;43.78;33.35
19736;BME280;32064;49.310;8.646;2023-08-21T08:32:23;101079.59;;;43.77;33.75
19736;BME280;32064;49.310;8.646;2023-08-21T08:34:48;101072.59;;;41.86;37.21
19736;BME280;32064;49.310;8.646;2023-08-21T08:37:14;101073.19;;;41.45;37.23
19736;BME280;32064;49.310;8.646;2023-08-21T08:39:39;101071.47;;;42.80;34.53
19736;BME280;32064;49.310;8.646;2023-08-21T08:42:05;101072.47;;;43.62;33.39
19736;BME280;32064;49.310;8.646;2023-08-21T08:44:35;101068.31;;;43.73;33.25
19736;BME280;32064;49.310;8.646;2023-08-21T08:47:01;101070.56;;;43.93;32.65
19736;BME280;32064;49.310;8.646;2023-08-21T08:49:27;101073.19;;;44.12;32.42
19736;BME280;32064;49.310;8.646;2023-08-21T08:51:54;101078.63;;;44.49;32.55
19736;BME280;32064;49.310;8.646;2023-08-21T08:54:20;101072.06;;;44.45;32.38
19736;BME280;32064;49.310;8.646;2023-08-21T08:56:45;101066.47;;;44.76;32.38
19736;BME280;32064;49.310;8.646;2023-08-21T08:59:11;101069.38;;;45.28;31.11
19736;BME280;32064;49.310;8.646;2023-08-21T09:01:37;101070.72;;;45.57;31.04
19736;BME280;32064;49.310;8.646;2023-08-21T09:04:03;101068.28;;;45.64;30.38
19736;BME280;32064;49.310;8.646;2023-08-21T09:06:29;101056.13;;;45.77;31.11
19736;BME280;32064;49.310;8.646;2023-08-21T09:08:56;101060.50;;;46.13;30.14
19736;BME280;32064;49.310;8.646;2023-08-21T09:11:22;101064.53;;;46.33;29.78
19736;BME280;32064;49.310;8.646;2023-08-21T09:13:52;101061.19;;;46.48;29.72
19736;BME280;32064;49.310;8.646;2023-08-21T09:16:18;101058.97;;;46.63;30.05
19736;BME280;32064;49.310;8.646;2023-08-21T09:18:53;101056.97;;;46.80;29.84
19736;BME280;32064;49.310;8.646;2023-08-21T09:21:20;101053.63;;;47.17;29.46
19736;BME280;32064;49.310;8.646;2023-08-21T09:23:46;101047.69;;;47.39;29.56
19736;BME280;32064;49.310;8.646;2023-08-21T09:26:30;101044.56;;;47.41;29.07
19736;BME280;32064;49.310;8.646;2023-08-21T09:28:58;101047.00;;;47.63;29.00
19736;BME280;32064;49.310;8.646;2023-08-21T09:31:30;101041.50;;;47.55;28.02
19736;BME280;32064;49.310;8.646;2023-08-21T09:33:56;101045.72;;;47.40;28.86
19736;BME280;32064;49.310;8.646;2023-08-21T09:36:22;101041.97;;;47.36;28.94
19736;BME280;32064;49.310;8.646;2023-08-21T09:38:48;101039.50;;;47.55;27.82
19736;BME280;32064;49.310;8.646;2023-08-21T09:41:13;101040.44;;;47.80;28.35
19736;BME280;32064;49.310;8.646;2023-08-21T09:43:42;101042.13;;;47.94;28.41
19736;BME280;32064;49.310;8.646;2023-08-21T09:46:08;101039.06;;;47.86;27.97
19736;BME280;32064;49.310;8.646;2023-08-21T09:48:34;101040.13;;;47.94;27.49
19736;BME280;32064;49.310;8.646;2023-08-21T09:51:00;101029.53;;;47.87;27.98
19736;BME280;32064;49.310;8.646;2023-08-21T09:53:29;101029.66;;;48.03;27.78
19736;BME280;32064;49.310;8.646;2023-08-21T09:55:55;101020.75;;;48.22;27.74
19736;BME280;32064;49.310;8.646;2023-08-21T09:58:21;101030.09;;;48.39;27.25
19736;BME280;32064;49.310;8.646;2023-08-21T10:00:48;101022.28;;;48.56;27.11
19736;BME280;32064;49.310;8.646;2023-08-21T10:03:19;101025.72;;;48.78;26.79
19736;BME280;32064;49.310;8.646;2023-08-21T10:05:47;101025.53;;;48.71;27.29
19736;BME280;32064;49.310;8.646;2023-08-21T10:08:15;101017.47;;;48.82;26.35
19736;BME280;32064;49.310;8.646;2023-08-21T10:10:41;101014.91;;;49.01;25.86
19736;BME280;32064;49.310;8.646;2023-08-21T10:13:07;101018.59;;;49.05;26.25
19736;BME280;32064;49.310;8.646;2023-08-21T10:15:34;101015.88;;;49.21;25.98
19736;BME280;32064;49.310;8.646;2023-08-21T10:18:20;101005.63;;;49.25;25.74
19736;BME280;32064;49.310;8.646;2023-08-21T10:20:46;101012.16;;;49.29;25.72
19736;BME280;32064;49.310;8.646;2023-08-21T10:23:27;101005.84;;;49.32;25.70
19736;BME280;32064;49.310;8.646;2023-08-21T10:26:01;100996.25;;;49.33;23.99
19736;BME280;32064;49.310;8.646;2023-08-21T10:28:43;100992.97;;;49.03;25.40
19736;BME280;32064;49.310;8.646;2023-08-21T10:33:50;100989.69;;;49.41;25.30
19736;BME280;32064;49.310;8.646;2023-08-21T10:41:53;100983.72;;;49.15;24.26
19736;BME280;32064;49.310;8.646;2023-08-21T10:47:23;100981.38;;;49.17;25.16
19736;BME280;32064;49.310;8.646;2023-08-21T10:50:01;100984.09;;;49.41;25.38
19736;BME280;32064;49.310;8.646;2023-08-21T10:52:31;100982.84;;;49.55;24.68
19736;BME280;32064;49.310;8.646;2023-08-21T10:55:01;100982.84;;;49.55;25.63
19736;BME280;32064;49.310;8.646;2023-08-21T10:57:29;100976.88;;;49.56;25.13
19736;BME280;32064;49.310;8.646;2023-08-21T11:00:00;100976.81;;;49.53;24.49
19736;BME280;32064;49.310;8.646;2023-08-21T11:02:27;100979.22;;;49.38;24.67
19736;BME280;32064;49.310;8.646;2023-08-21T11:04:57;100982.78;;;49.23;24.32
19736;BME280;32064;49.310;8.646;2023-08-21T11:07:23;100975.81;;;48.52;24.82
19736;BME280;32064;49.310;8.646;2023-08-21T11:09:49;100974.88;;;48.72;24.79
19736;BME280;32064;49.310;8.646;2023-08-21T11:12:17;100980.78;;;48.95;25.00
19736;BME280;32064;49.310;8.646;2023-08-21T11:14:44;100974.63;;;49.18;25.10
19736;BME280;32064;49.310;8.646;2023-08-21T11:17:10;100973.22;;;49.12;24.08
19736;BME280;32064;49.310;8.646;2023-08-21T11:19:36;100973.25;;;49.40;24.53
19736;BME280;32064;49.310;8.646;2023-08-21T11:22:02;100974.09;;;49.56;24.41
19736;BME280;32064;49.310;8.646;2023-08-21T11:27:07;100972.16;;;49.16;24.57
19736;BME280;32064;49.310;8.646;2023-08-21T11:29:38;100967.72;;;48.75;24.85
19736;BME280;32064;49.310;8.646;2023-08-21T11:32:28;100964.97;;;48.01;26.22
19736;BME280;32064;49.310;8.646;2023-08-21T11:34:54;100960.63;;;47.13;26.58
19736;BME280;32064;49.310;8.646;2023-08-21T11:37:21;100962.75;;;46.65;26.83
19736;BME280;32064;49.310;8.646;2023-08-21T11:39:52;100953.63;;;45.97;27.62
19736;BME280;32064;49.310;8.646;2023-08-21T11:42:19;100948.81;;;45.24;28.70
19736;BME280;32064;49.310;8.646;2023-08-21T11:44:50;100963.22;;;44.83;29.14
19736;BME280;32064;49.310;8.646;2023-08-21T11:47:17;100954.63;;;44.53;29.79
19736;BME280;32064;49.310;8.646;2023-08-21T11:49:44;100951.75;;;44.27;29.95
19736;BME280;32064;49.310;8.646;2023-08-21T11:52:10;100956.47;;;44.18;30.41
19736;BME280;32064;49.310;8.646;2023-08-21T11:54:37;100953.97;;;44.07;30.62
19736;BME280;32064;49.310;8.646;2023-08-21T11:57:05;100950.25;;;43.81;30.68
19736;BME280;32064;49.310;8.646;2023-08-21T11:59:30;100952.94;;;43.63;30.65
19736;BME280;32064;49.310;8.646;2023-08-21T12:01:56;100947.38;;;43.18;30.78
19736;BME280;32064;49.310;8.646;2023-08-21T12:04:21;100955.50;;;43.01;30.34
19736;BME280;32064;49.310;8.646;2023-08-21T12:06:47;100949.44;;;42.99;30.99
19736;BME280;32064;49.310;8.646;2023-08-21T12:09:12;100951.56;;;42.79;31.46
19736;BME280;32064;49.310;8.646;2023-08-21T12:11:38;100946.53;;;42.68;31.99
19736;BME280;32064;49.310;8.646;2023-08-21T12:14:06;100948.28;;;42.77;31.43
19736;BME280;32064;49.310;8.646;2023-08-21T12:16:32;100941.44;;;42.61;31.84
19736;BME280;32064;49.310;8.646;2023-08-21T12:18:57;100936.94;;;42.37;31.98
19736;BME280;32064;49.310;8.646;2023-08-21T12:21:24;100950.97;;;42.27;32.38
19736;BME280;32064;49.310;8.646;2023-08-21T12:23:50;100946.84;;;42.25;32.76
19736;BME280;32064;49.310;8.646;2023-08-21T12:26:15;100932.09;;;42.15;31.65
19736;BME280;32064;49.310;8.646;2023-08-21T12:28:46;100935.91;;;41.59;32.60
19736;BME280;32064;49.310;8.646;2023-08-21T12:31:12;100931.22;;;41.22;32.23
19736;BME280;32064;49.310;8.646;2023-08-21T12:33:38;100931.22;;;41.03;33.29
19736;BME280;32064;49.310;8.646;2023-08-21T12:36:03;100926.06;;;41.15;33.79
19736;BME280;32064;49.310;8.646;2023-08-21T12:38:29;100925.41;;;41.23;33.04
19736;BME280;32064;49.310;8.646;2023-08-21T12:40:54;100922.09;;;41.21;32.42
19736;BME280;32064;49.310;8.646;2023-08-21T12:43:20;100910.63;;;41.14;32.95
19736;BME280;32064;49.310;8.646;2023-08-21T12:45:46;100910.81;;;40.99;33.07
19736;BME280;32064;49.310;8.646;2023-08-21T12:48:12;100911.31;;;41.06;33.78
19736;BME280;32064;49.310;8.646;2023-08-21T12:50:38;100906.03;;;41.04;33.12
19736;BME280;32064;49.310;8.646;2023-08-21T12:53:03;100904.69;;;41.02;33.41
19736;BME280;32064;49.310;8.646;2023-08-21T12:55:29;100913.25;;;41.05;33.77
19736;BME280;32064;49.310;8.646;2023-08-21T12:57:56;100899.34;;;40.92;33.02
19736;BME280;32064;49.310;8.646;2023-08-21T13:00:22;100901.16;;;40.82;33.52
19736;BME280;32064;49.310;8.646;2023-08-21T13:02:47;100897.25;;;40.83;33.77
19736;BME280;32064;49.310;8.646;2023-08-21T13:05:12;100897.47;;;40.87;33.88